sensor_id;sensor_type;location;lat;lon;timestamp;temperature;humidity
50738;DHT22;36703;48.154;17.126;2022-11-20T00:00:41;7.20;46.70
50738;DHT22;36703;48.154;17.126;2022-11-20T00:04:43;7.20;46.80
50738;DHT22;36703;48.154;17.126;2022-11-20T00:08:45;7.10;46.70
50738;DHT22;36703;48.154;17.126;2022-11-20T00:12:47;7.10;46.80
50738;DHT22;36703;48.154;17.126;2022-11-20T00:16:49;7.20;46.90
50738;DHT22;36703;48.154;17.126;2022-11-20T00:20:50;7.20;46.90
50738;DHT22;36703;48.154;17.126;2022-11-20T00:24:52;7.20;46.90
50738;DHT22;36703;48.154;17.126;2022-11-20T00:28:56;7.20;46.80
50738;DHT22;36703;48.154;17.126;2022-11-20T00:32:59;7.20;46.80
50738;DHT22;36703;48.154;17.126;2022-11-20T00:37:00;7.20;46.80
50738;DHT22;36703;48.154;17.126;2022-11-20T00:41:06;7.20;46.80
50738;DHT22;36703;48.154;17.126;2022-11-20T00:45:09;7.20;46.70
50738;DHT22;36703;48.154;17.126;2022-11-20T00:49:11;7.30;46.70
50738;DHT22;36703;48.154;17.126;2022-11-20T00:53:12;7.30;46.60
50738;DHT22;36703;48.154;17.126;2022-11-20T00:57:14;7.30;46.50
50738;DHT22;36703;48.154;17.126;2022-11-20T01:01:16;7.30;46.60
50738;DHT22;36703;48.154;17.126;2022-11-20T01:05:25;7.40;46.50
50738;DHT22;36703;48.154;17.126;2022-11-20T01:09:26;7.30;46.50
50738;DHT22;36703;48.154;17.126;2022-11-20T01:13:29;7.30;46.50
50738;DHT22;36703;48.154;17.126;2022-11-20T01:17:40;7.20;46.50
50738;DHT22;36703;48.154;17.126;2022-11-20T01:21:43;7.30;46.60
50738;DHT22;36703;48.154;17.126;2022-11-20T01:25:45;7.20;46.50
50738;DHT22;36703;48.154;17.126;2022-11-20T01:29:47;7.10;46.70
50738;DHT22;36703;48.154;17.126;2022-11-20T01:33:50;7.20;46.90
50738;DHT22;36703;48.154;17.126;2022-11-20T01:37:53;7.20;46.70
50738;DHT22;36703;48.154;17.126;2022-11-20T01:41:55;7.20;46.80
50738;DHT22;36703;48.154;17.126;2022-11-20T01:46:17;7.20;46.70
50738;DHT22;36703;48.154;17.126;2022-11-20T01:50:25;7.20;46.80
50738;DHT22;36703;48.154;17.126;2022-11-20T01:54:43;7.20;46.80
50738;DHT22;36703;48.154;17.126;2022-11-20T01:58:58;7.20;46.80
50738;DHT22;36703;48.154;17.126;2022-11-20T02:03:13;7.20;47.00
50738;DHT22;36703;48.154;17.126;2022-11-20T02:07:17;7.20;47.10
50738;DHT22;36703;48.154;17.126;2022-11-20T02:11:20;7.20;47.20
50738;DHT22;36703;48.154;17.126;2022-11-20T02:15:22;7.20;47.30
50738;DHT22;36703;48.154;17.126;2022-11-20T02:19:29;7.20;47.50
50738;DHT22;36703;48.154;17.126;2022-11-20T02:24:00;7.30;47.50
50738;DHT22;36703;48.154;17.126;2022-11-20T02:28:04;7.20;47.60
50738;DHT22;36703;48.154;17.126;2022-11-20T08:50:48;7.90;55.60
50738;DHT22;36703;48.154;17.126;2022-11-20T08:54:49;7.80;55.60
50738;DHT22;36703;48.154;17.126;2022-11-20T08:58:51;7.90;55.60
50738;DHT22;36703;48.154;17.126;2022-11-20T09:02:53;8.00;55.50
50738;DHT22;36703;48.154;17.126;2022-11-20T09:06:55;8.20;55.50
50738;DHT22;36703;48.154;17.126;2022-11-20T09:10:58;8.20;55.30
50738;DHT22;36703;48.154;17.126;2022-11-20T09:15:00;8.20;55.20
50738;DHT22;36703;48.154;17.126;2022-11-20T09:19:01;8.20;55.40
50738;DHT22;36703;48.154;17.126;2022-11-20T09:23:03;8.40;55.30
50738;DHT22;36703;48.154;17.126;2022-11-20T09:27:05;8.40;55.00
50738;DHT22;36703;48.154;17.126;2022-11-20T09:31:07;8.40;55.00
50738;DHT22;36703;48.154;17.126;2022-11-20T09:35:10;8.50;55.00
50738;DHT22;36703;48.154;17.126;2022-11-20T09:39:12;8.50;55.60
50738;DHT22;36703;48.154;17.126;2022-11-20T09:43:18;8.70;54.80
50738;DHT22;36703;48.154;17.126;2022-11-20T09:52:01;8.70;54.50
50738;DHT22;36703;48.154;17.126;2022-11-20T09:56:28;8.80;54.50
50738;DHT22;36703;48.154;17.126;2022-11-20T10:00:30;8.80;54.30
50738;DHT22;36703;48.154;17.126;2022-11-20T10:04:33;8.90;54.30
50738;DHT22;36703;48.154;17.126;2022-11-20T10:09:00;9.00;54.20
50738;DHT22;36703;48.154;17.126;2022-11-20T10:13:40;8.90;54.20
50738;DHT22;36703;48.154;17.126;2022-11-20T10:18:23;8.90;54.20
50738;DHT22;36703;48.154;17.126;2022-11-20T10:31:39;8.50;54.60
50738;DHT22;36703;48.154;17.126;2022-11-20T10:44:36;8.60;55.20
50738;DHT22;36703;48.154;17.126;2022-11-20T10:48:56;8.50;55.10
50738;DHT22;36703;48.154;17.126;2022-11-20T10:53:05;8.50;55.40
50738;DHT22;36703;48.154;17.126;2022-11-20T11:01:51;8.50;55.50
50738;DHT22;36703;48.154;17.126;2022-11-20T11:10:39;8.50;55.60
50738;DHT22;36703;48.154;17.126;2022-11-20T11:14:48;8.70;55.60
50738;DHT22;36703;48.154;17.126;2022-11-20T11:19:02;8.70;55.40
50738;DHT22;36703;48.154;17.126;2022-11-20T11:27:30;8.70;55.40
50738;DHT22;36703;48.154;17.126;2022-11-20T11:31:34;8.70;55.50
50738;DHT22;36703;48.154;17.126;2022-11-20T11:35:47;8.70;55.60
50738;DHT22;36703;48.154;17.126;2022-11-20T11:39:51;8.70;55.50
50738;DHT22;36703;48.154;17.126;2022-11-20T11:43:54;8.70;55.80
50738;DHT22;36703;48.154;17.126;2022-11-20T11:48:16;8.60;55.60
50738;DHT22;36703;48.154;17.126;2022-11-20T11:52:21;8.60;55.80
50738;DHT22;36703;48.154;17.126;2022-11-20T11:56:25;8.50;55.70
50738;DHT22;36703;48.154;17.126;2022-11-20T12:00:28;8.50;55.80
50738;DHT22;36703;48.154;17.126;2022-11-20T12:04:42;8.50;56.00
50738;DHT22;36703;48.154;17.126;2022-11-20T12:17:42;8.50;56.10
50738;DHT22;36703;48.154;17.126;2022-11-20T12:22:09;8.60;56.30
50738;DHT22;36703;48.154;17.126;2022-11-20T12:31:33;8.80;56.00
50738;DHT22;36703;48.154;17.126;2022-11-20T15:31:52;9.50;55.10
50738;DHT22;36703;48.154;17.126;2022-11-20T15:35:55;9.50;55.20
50738;DHT22;36703;48.154;17.126;2022-11-20T15:39:57;9.40;55.30
50738;DHT22;36703;48.154;17.126;2022-11-20T15:43:58;9.40;55.50
50738;DHT22;36703;48.154;17.126;2022-11-20T15:48:01;9.40;55.60
50738;DHT22;36703;48.154;17.126;2022-11-20T15:52:03;9.40;56.00
50738;DHT22;36703;48.154;17.126;2022-11-20T15:56:04;9.30;55.60
50738;DHT22;36703;48.154;17.126;2022-11-20T16:00:07;9.30;55.90
50738;DHT22;36703;48.154;17.126;2022-11-20T16:04:13;9.20;55.90
50738;DHT22;36703;48.154;17.126;2022-11-20T16:08:16;9.10;56.00
50738;DHT22;36703;48.154;17.126;2022-11-20T16:12:18;9.10;56.20
50738;DHT22;36703;48.154;17.126;2022-11-20T16:16:40;9.10;56.20
50738;DHT22;36703;48.154;17.126;2022-11-20T16:20:43;9.10;56.50
50738;DHT22;36703;48.154;17.126;2022-11-20T16:24:45;9.00;56.40
50738;DHT22;36703;48.154;17.126;2022-11-20T16:28:47;9.00;56.50
50738;DHT22;36703;48.154;17.126;2022-11-20T16:32:49;9.00;56.60
50738;DHT22;36703;48.154;17.126;2022-11-20T16:36:50;9.00;56.70
50738;DHT22;36703;48.154;17.126;2022-11-20T16:40:52;9.00;56.80
50738;DHT22;36703;48.154;17.126;2022-11-20T16:44:53;9.00;56.80
50738;DHT22;36703;48.154;17.126;2022-11-20T16:49:03;9.10;56.90
50738;DHT22;36703;48.154;17.126;2022-11-20T16:53:12;9.20;56.80
50738;DHT22;36703;48.154;17.126;2022-11-20T16:57:14;9.20;56.80
50738;DHT22;36703;48.154;17.126;2022-11-20T17:01:20;9.30;56.90
50738;DHT22;36703;48.154;17.126;2022-11-20T17:05:22;9.30;56.80
50738;DHT22;36703;48.154;17.126;2022-11-20T17:09:24;9.30;56.90
50738;DHT22;36703;48.154;17.126;2022-11-20T17:13:25;9.30;57.00
50738;DHT22;36703;48.154;17.126;2022-11-20T17:17:27;9.30;57.20
50738;DHT22;36703;48.154;17.126;2022-11-20T17:21:29;9.30;57.10
50738;DHT22;36703;48.154;17.126;2022-11-20T17:25:32;9.30;57.10
50738;DHT22;36703;48.154;17.126;2022-11-20T17:29:34;9.30;57.10
50738;DHT22;36703;48.154;17.126;2022-11-20T17:33:38;9.40;57.10
50738;DHT22;36703;48.154;17.126;2022-11-20T17:37:40;9.40;57.00
50738;DHT22;36703;48.154;17.126;2022-11-20T17:41:42;9.50;57.10
50738;DHT22;36703;48.154;17.126;2022-11-20T17:45:44;9.50;57.00
50738;DHT22;36703;48.154;17.126;2022-11-20T17:49:46;9.50;57.00
50738;DHT22;36703;48.154;17.126;2022-11-20T17:53:50;9.50;57.00
50738;DHT22;36703;48.154;17.126;2022-11-20T17:57:53;9.40;57.00
50738;DHT22;36703;48.154;17.126;2022-11-20T18:01:57;9.40;57.10
50738;DHT22;36703;48.154;17.126;2022-11-20T18:06:06;9.30;57.20
50738;DHT22;36703;48.154;17.126;2022-11-20T18:10:14;9.30;57.20
50738;DHT22;36703;48.154;17.126;2022-11-20T18:14:16;9.20;57.50
50738;DHT22;36703;48.154;17.126;2022-11-20T18:18:29;9.30;57.50
50738;DHT22;36703;48.154;17.126;2022-11-20T18:22:31;9.30;57.50
50738;DHT22;36703;48.154;17.126;2022-11-20T18:26:32;9.40;57.50
50738;DHT22;36703;48.154;17.126;2022-11-20T18:30:35;9.40;57.40
50738;DHT22;36703;48.154;17.126;2022-11-20T18:34:37;9.40;57.40
50738;DHT22;36703;48.154;17.126;2022-11-20T18:38:39;9.40;57.40
50738;DHT22;36703;48.154;17.126;2022-11-20T18:42:43;9.50;57.40
50738;DHT22;36703;48.154;17.126;2022-11-20T18:47:10;9.50;57.40
50738;DHT22;36703;48.154;17.126;2022-11-20T18:51:13;9.50;57.30
50738;DHT22;36703;48.154;17.126;2022-11-20T18:55:16;9.60;57.50
50738;DHT22;36703;48.154;17.126;2022-11-20T18:59:19;9.60;57.50
50738;DHT22;36703;48.154;17.126;2022-11-20T19:03:21;9.60;57.50
50738;DHT22;36703;48.154;17.126;2022-11-20T19:07:23;9.60;57.60
50738;DHT22;36703;48.154;17.126;2022-11-20T19:11:24;9.50;57.60
50738;DHT22;36703;48.154;17.126;2022-11-20T19:15:27;9.50;57.60
50738;DHT22;36703;48.154;17.126;2022-11-20T19:19:29;9.50;57.70
50738;DHT22;36703;48.154;17.126;2022-11-20T19:23:32;9.50;58.20
50738;DHT22;36703;48.154;17.126;2022-11-20T19:27:33;9.50;57.80
50738;DHT22;36703;48.154;17.126;2022-11-20T19:31:35;9.50;57.80
50738;DHT22;36703;48.154;17.126;2022-11-20T19:35:37;9.60;57.80
50738;DHT22;36703;48.154;17.126;2022-11-20T19:39:38;9.60;57.80
50738;DHT22;36703;48.154;17.126;2022-11-20T19:43:40;9.60;57.80
50738;DHT22;36703;48.154;17.126;2022-11-20T19:47:42;9.60;57.70
50738;DHT22;36703;48.154;17.126;2022-11-20T19:51:47;9.70;57.80
50738;DHT22;36703;48.154;17.126;2022-11-20T19:55:57;9.70;57.70
50738;DHT22;36703;48.154;17.126;2022-11-20T19:59:59;9.70;57.70
50738;DHT22;36703;48.154;17.126;2022-11-20T20:04:01;9.70;57.80
50738;DHT22;36703;48.154;17.126;2022-11-20T20:08:05;9.70;57.80
50738;DHT22;36703;48.154;17.126;2022-11-20T20:12:06;9.70;58.00
50738;DHT22;36703;48.154;17.126;2022-11-20T20:16:13;9.70;58.00
50738;DHT22;36703;48.154;17.126;2022-11-20T20:20:16;9.70;57.90
50738;DHT22;36703;48.154;17.126;2022-11-20T20:24:17;9.70;58.00
50738;DHT22;36703;48.154;17.126;2022-11-20T20:28:19;9.70;58.00
50738;DHT22;36703;48.154;17.126;2022-11-20T20:32:21;9.70;58.00
50738;DHT22;36703;48.154;17.126;2022-11-20T20:36:23;9.70;58.10
50738;DHT22;36703;48.154;17.126;2022-11-20T20:40:25;9.60;58.00
50738;DHT22;36703;48.154;17.126;2022-11-20T20:44:26;9.50;58.20
50738;DHT22;36703;48.154;17.126;2022-11-20T20:48:46;9.60;58.30
50738;DHT22;36703;48.154;17.126;2022-11-20T20:52:48;9.60;58.40
50738;DHT22;36703;48.154;17.126;2022-11-20T20:56:50;9.60;58.20
50738;DHT22;36703;48.154;17.126;2022-11-20T21:00:52;9.70;58.30
50738;DHT22;36703;48.154;17.126;2022-11-20T21:04:54;9.70;58.10
50738;DHT22;36703;48.154;17.126;2022-11-20T21:08:56;9.70;58.20
50738;DHT22;36703;48.154;17.126;2022-11-20T21:12:58;9.70;58.20
50738;DHT22;36703;48.154;17.126;2022-11-20T21:17:00;9.70;58.10
50738;DHT22;36703;48.154;17.126;2022-11-20T21:21:07;9.70;58.10
50738;DHT22;36703;48.154;17.126;2022-11-20T21:25:28;9.70;58.00
50738;DHT22;36703;48.154;17.126;2022-11-20T21:29:30;9.60;58.10
50738;DHT22;36703;48.154;17.126;2022-11-20T21:33:36;9.60;58.10
50738;DHT22;36703;48.154;17.126;2022-11-20T21:37:41;9.60;58.00
50738;DHT22;36703;48.154;17.126;2022-11-20T21:41:43;9.50;58.10
50738;DHT22;36703;48.154;17.126;2022-11-20T21:45:44;9.40;58.10
50738;DHT22;36703;48.154;17.126;2022-11-20T21:49:46;9.40;58.20
50738;DHT22;36703;48.154;17.126;2022-11-20T21:53:49;9.30;58.30
50738;DHT22;36703;48.154;17.126;2022-11-20T21:57:51;9.30;58.30
50738;DHT22;36703;48.154;17.126;2022-11-20T22:01:53;9.40;58.30
50738;DHT22;36703;48.154;17.126;2022-11-20T22:05:55;9.50;58.40
50738;DHT22;36703;48.154;17.126;2022-11-20T22:09:57;9.50;58.20
50738;DHT22;36703;48.154;17.126;2022-11-20T22:13:59;9.40;58.20
50738;DHT22;36703;48.154;17.126;2022-11-20T22:18:19;9.50;58.40
50738;DHT22;36703;48.154;17.126;2022-11-20T22:22:22;9.50;58.20
50738;DHT22;36703;48.154;17.126;2022-11-20T22:26:26;9.50;58.20
50738;DHT22;36703;48.154;17.126;2022-11-20T22:30:29;9.50;58.10
50738;DHT22;36703;48.154;17.126;2022-11-20T22:34:30;9.50;58.30
50738;DHT22;36703;48.154;17.126;2022-11-20T22:38:33;9.50;58.30
50738;DHT22;36703;48.154;17.126;2022-11-20T22:42:35;9.50;58.20
50738;DHT22;36703;48.154;17.126;2022-11-20T22:46:36;9.60;58.30
50738;DHT22;36703;48.154;17.126;2022-11-20T22:50:38;9.50;58.20
50738;DHT22;36703;48.154;17.126;2022-11-20T22:54:40;9.50;58.30
50738;DHT22;36703;48.154;17.126;2022-11-20T22:58:47;9.50;58.40
50738;DHT22;36703;48.154;17.126;2022-11-20T23:02:49;9.40;58.40
50738;DHT22;36703;48.154;17.126;2022-11-20T23:06:51;9.30;58.50
50738;DHT22;36703;48.154;17.126;2022-11-20T23:10:57;9.30;58.60
50738;DHT22;36703;48.154;17.126;2022-11-20T23:15:03;9.20;58.60
50738;DHT22;36703;48.154;17.126;2022-11-20T23:19:07;9.20;58.80
50738;DHT22;36703;48.154;17.126;2022-11-20T23:23:10;9.10;58.70
50738;DHT22;36703;48.154;17.126;2022-11-20T23:27:12;9.10;58.80
50738;DHT22;36703;48.154;17.126;2022-11-20T23:31:15;9.10;58.90
50738;DHT22;36703;48.154;17.126;2022-11-20T23:35:17;9.10;58.80
50738;DHT22;36703;48.154;17.126;2022-11-20T23:39:18;9.10;58.80
50738;DHT22;36703;48.154;17.126;2022-11-20T23:43:21;9.10;58.70
50738;DHT22;36703;48.154;17.126;2022-11-20T23:47:22;9.10;58.80
50738;DHT22;36703;48.154;17.126;2022-11-20T23:51:24;9.20;58.70
50738;DHT22;36703;48.154;17.126;2022-11-20T23:55:26;9.20;58.80
50738;DHT22;36703;48.154;17.126;2022-11-20T23:59:27;9.20;58.70
